Terminal Aerodrome Forecast
Issued by NWS Cleveland, OH

Home | Current Version | Previous Version | Graphics & Text | Print | Product List | Glossary On
Versions: 1 2 3 4 5 6 7 8 9 10 11 12 13 14 15 16 17 18 19 20 21
000
FTUS41 KCLE 190534
TAFCAK
TAF
KCAK 190534Z 1906/2006 32025G35KT P6SM -SHRASN OVC007
     FM190700 30025G35KT P6SM VCSH OVC007
     FM191100 30015G25KT P6SM OVC015
     FM191800 29015G25KT P6SM OVC025
     FM192200 29015G25KT P6SM OVC020
     FM200500 27012KT P6SM BKN035=

USA.gov is the U.S. government's official web portal to all federal, state and local government web resources and services.